createdAt,value
2023-04-08T00:00:52.666Z,79.70
2023-04-08T00:03:21.090Z,80.00
2023-04-08T00:05:49.060Z,80.00
2023-04-08T00:08:18.242Z,80.50
2023-04-08T00:10:46.106Z,80.90
2023-04-08T00:13:14.848Z,81.10
2023-04-08T00:15:42.968Z,81.80
2023-04-08T00:18:10.862Z,81.60
2023-04-08T00:20:38.813Z,81.80
2023-04-08T00:23:06.796Z,81.80
2023-04-08T00:25:36.152Z,82.10
2023-04-08T00:28:04.075Z,82.30
2023-04-08T00:30:32.005Z,81.90
2023-04-08T00:32:59.925Z,82.10
2023-04-08T00:35:28.051Z,82.20
2023-04-08T00:37:55.956Z,81.80
2023-04-08T00:40:23.852Z,82.40
2023-04-08T00:42:53.082Z,83.00
2023-04-08T00:45:20.953Z,83.20
2023-04-08T00:47:52.561Z,83.00
2023-04-08T00:50:21.070Z,83.30
2023-04-08T00:52:48.961Z,83.50
2023-04-08T00:55:16.813Z,83.60
2023-04-08T00:57:44.760Z,83.40
2023-04-08T01:00:15.954Z,83.20
2023-04-08T01:02:49.107Z,83.40
2023-04-08T01:05:21.986Z,83.20
2023-04-08T01:07:50.839Z,83.20
2023-04-08T01:10:23.172Z,83.00
2023-04-08T01:12:55.081Z,83.00
2023-04-08T01:15:26.946Z,82.80
2023-04-08T01:17:57.395Z,83.00
2023-04-08T01:20:26.610Z,83.00
2023-04-08T01:23:10.637Z,83.10
2023-04-08T01:25:39.612Z,83.40
2023-04-08T01:28:12.317Z,83.50
2023-04-08T01:30:41.570Z,83.60
2023-04-08T01:33:11.388Z,83.50
2023-04-08T01:35:39.931Z,83.70
2023-04-08T01:38:09.853Z,83.70
2023-04-08T01:40:40.328Z,83.60
2023-04-08T01:43:11.245Z,83.70
2023-04-08T01:45:39.523Z,83.70
2023-04-08T01:48:08.346Z,83.80
2023-04-08T01:50:36.684Z,83.70
2023-04-08T01:53:06.526Z,83.90
2023-04-08T01:55:34.705Z,84.20
2023-04-08T01:58:03.797Z,84.00
2023-04-08T02:00:34.924Z,83.90
2023-04-08T02:03:05.096Z,83.90
2023-04-08T02:05:33.151Z,84.00
2023-04-08T02:08:00.990Z,84.00
2023-04-08T02:10:29.060Z,83.90
2023-04-08T02:12:57.705Z,84.10
2023-04-08T02:15:27.451Z,83.80
2023-04-08T02:18:00.754Z,84.10
2023-04-08T02:20:35.802Z,84.00
2023-04-08T02:23:08.621Z,84.10
2023-04-08T02:25:39.878Z,84.40
2023-04-08T02:28:11.141Z,84.60
2023-04-08T02:30:42.341Z,84.70
2023-04-08T02:33:14.602Z,84.90
2023-04-08T02:35:43.412Z,85.00
2023-04-08T02:38:11.689Z,84.90
2023-04-08T02:40:39.624Z,85.10
2023-04-08T02:43:07.490Z,85.20
2023-04-08T02:45:41.826Z,85.60
2023-04-08T02:48:11.440Z,85.90
2023-04-08T02:50:39.830Z,85.90
2023-04-08T02:53:08.314Z,86.00
2023-04-08T02:55:36.180Z,86.10
2023-04-08T02:58:04.011Z,86.00
2023-04-08T03:00:31.980Z,86.00
2023-04-08T03:02:59.993Z,85.80
2023-04-08T03:05:29.588Z,85.90
2023-04-08T03:07:57.430Z,85.90
2023-04-08T03:10:25.584Z,86.00
2023-04-08T03:12:53.651Z,85.90
2023-04-08T03:15:21.609Z,86.10
2023-04-08T03:17:49.531Z,86.10
2023-04-08T03:20:17.585Z,86.10
2023-04-08T03:22:46.754Z,86.20
2023-04-08T03:25:14.630Z,86.30
2023-04-08T03:27:42.518Z,86.30
2023-04-08T03:30:10.880Z,86.20
2023-04-08T03:32:38.860Z,86.50
2023-04-08T03:35:07.606Z,86.80
2023-04-08T03:37:35.861Z,86.60
2023-04-08T03:40:05.731Z,86.90
2023-04-08T03:42:35.000Z,87.00
2023-04-08T03:45:02.864Z,87.00
2023-04-08T03:47:31.534Z,86.70
2023-04-08T03:49:59.384Z,86.60
2023-04-08T03:52:27.242Z,86.30
2023-04-08T03:54:55.149Z,86.30
2023-04-08T03:57:24.365Z,86.10
2023-04-08T03:59:52.156Z,85.70
2023-04-08T04:02:20.137Z,85.30
2023-04-08T04:04:48.057Z,85.20
2023-04-08T04:07:16.404Z,85.00
2023-04-08T04:09:44.207Z,84.70
2023-04-08T04:12:12.075Z,84.70
2023-04-08T04:14:41.257Z,84.60
2023-04-08T04:17:09.074Z,84.80
2023-04-08T04:19:36.884Z,84.70
2023-04-08T04:22:04.678Z,84.50
2023-04-08T04:24:32.504Z,84.70
2023-04-08T04:27:00.384Z,84.80
2023-04-08T04:29:28.300Z,84.50
2023-04-08T04:31:57.480Z,84.50
2023-04-08T04:34:25.386Z,84.50
2023-04-08T04:36:53.202Z,84.50
2023-04-08T04:39:21.060Z,84.70
2023-04-08T04:41:49.313Z,84.40
2023-04-08T04:44:17.153Z,84.30
2023-04-08T04:46:45.146Z,84.50
2023-04-08T04:49:14.338Z,84.70
2023-04-08T04:51:42.301Z,84.70
2023-04-08T04:54:10.257Z,85.00
2023-04-08T04:56:38.122Z,84.90
2023-04-08T04:59:06.633Z,84.70
2023-04-08T05:01:34.544Z,84.80
2023-04-08T05:04:02.496Z,84.60
2023-04-08T05:06:31.627Z,84.20
2023-04-08T05:08:59.472Z,84.20
2023-04-08T05:11:27.364Z,84.60
2023-04-08T05:13:55.363Z,84.40
2023-04-08T05:16:23.237Z,84.50
2023-04-08T05:18:51.453Z,84.20
2023-04-08T05:21:19.480Z,84.20
2023-04-08T05:23:48.623Z,84.30
2023-04-08T05:26:17.854Z,84.50
2023-04-08T05:28:46.539Z,84.70
2023-04-08T05:31:16.567Z,84.80
2023-04-08T05:33:44.607Z,84.90
2023-04-08T05:36:12.519Z,85.00
2023-04-08T05:38:40.548Z,85.00
2023-04-08T05:41:09.962Z,84.70
2023-04-08T05:43:37.965Z,84.60
2023-04-08T05:46:09.039Z,84.80
2023-04-08T05:48:37.061Z,84.80
2023-04-08T05:51:05.151Z,85.10
2023-04-08T05:53:32.960Z,84.70
2023-04-08T05:56:00.938Z,84.50
2023-04-08T05:58:30.187Z,84.50
2023-04-08T06:00:58.006Z,84.70
2023-04-08T06:03:26.153Z,83.80
2023-04-08T06:05:54.106Z,83.80
2023-04-08T06:08:22.476Z,84.00
2023-04-08T06:10:51.284Z,83.80
2023-04-08T06:13:20.183Z,83.40
2023-04-08T06:15:50.197Z,82.90
2023-04-08T06:18:18.344Z,82.90
2023-04-08T06:20:46.494Z,82.60
2023-04-08T06:23:14.398Z,82.40
2023-04-08T06:25:42.436Z,82.10
2023-04-08T06:28:10.289Z,81.80
2023-04-08T06:30:38.215Z,80.60
2023-04-08T06:33:07.486Z,80.90
2023-04-08T06:35:37.351Z,80.90
2023-04-08T06:38:05.375Z,80.90
2023-04-08T06:40:33.234Z,80.80
2023-04-08T06:43:01.097Z,80.40
2023-04-08T06:45:29.057Z,80.70
2023-04-08T06:47:57.345Z,81.10
2023-04-08T06:50:26.779Z,81.30
2023-04-08T06:52:55.006Z,81.30
2023-04-08T06:55:22.840Z,81.20
2023-04-08T06:57:50.740Z,81.50
2023-04-08T07:00:19.084Z,81.40
2023-04-08T07:02:47.136Z,81.20
2023-04-08T07:05:15.252Z,81.50
2023-04-08T07:07:44.426Z,81.70
2023-04-08T07:10:13.623Z,81.90
2023-04-08T07:12:41.480Z,81.70
2023-04-08T07:15:10.633Z,82.10
2023-04-08T07:17:39.429Z,82.00
2023-04-08T07:20:08.496Z,82.10
2023-04-08T07:22:36.283Z,82.00
2023-04-08T07:25:06.000Z,82.70
2023-04-08T07:27:34.885Z,82.50
2023-04-08T07:30:02.903Z,81.90
2023-04-08T07:32:30.849Z,81.90
2023-04-08T07:35:00.091Z,80.90
2023-04-08T07:37:28.096Z,80.90
2023-04-08T07:39:56.286Z,80.70
2023-04-08T07:42:25.891Z,81.20
2023-04-08T07:44:53.990Z,81.70
2023-04-08T07:47:22.025Z,81.60
2023-04-08T07:49:49.921Z,81.90
2023-04-08T07:52:17.777Z,82.50
2023-04-08T07:54:45.578Z,82.00
2023-04-08T07:57:13.571Z,81.80
2023-04-08T07:59:42.825Z,81.30
2023-04-08T08:02:10.798Z,81.50
2023-04-08T08:04:38.880Z,80.10
2023-04-08T08:07:06.830Z,80.00
2023-04-08T08:09:34.764Z,79.50
2023-04-08T08:12:03.141Z,78.50
2023-04-08T08:14:30.999Z,77.30
2023-04-08T08:17:01.521Z,77.20
2023-04-08T08:19:29.346Z,76.70
2023-04-08T08:21:57.584Z,76.00
2023-04-08T08:24:25.860Z,76.50
2023-04-08T08:26:53.780Z,75.50
2023-04-08T08:29:21.637Z,74.40
2023-04-08T08:31:49.654Z,73.90
2023-04-08T08:34:18.854Z,75.90
2023-04-08T08:36:46.710Z,76.00
2023-04-08T08:39:14.584Z,75.10
2023-04-08T08:41:42.455Z,74.10
2023-04-08T08:44:12.072Z,75.30
2023-04-08T08:46:45.335Z,76.10
2023-04-08T08:49:13.838Z,75.40
2023-04-08T08:51:43.665Z,74.80
2023-04-08T08:54:11.614Z,75.40
2023-04-08T08:56:39.793Z,75.20
2023-04-08T08:59:07.992Z,76.20
2023-04-08T09:01:37.403Z,73.90
2023-04-08T09:04:15.736Z,73.80
2023-04-08T09:06:46.531Z,73.40
2023-04-08T09:09:14.948Z,72.40
2023-04-08T09:11:44.117Z,70.30
2023-04-08T09:14:22.576Z,71.40
2023-04-08T09:16:50.933Z,72.10
2023-04-08T09:19:18.999Z,71.10
2023-04-08T09:22:06.825Z,71.30
2023-04-08T09:24:35.632Z,71.80
2023-04-08T09:27:03.649Z,71.30
2023-04-08T09:29:34.288Z,71.10
2023-04-08T09:32:03.885Z,71.60
2023-04-08T09:34:34.057Z,68.30
2023-04-08T09:37:03.464Z,69.00
2023-04-08T09:39:32.434Z,69.00
2023-04-08T09:42:01.950Z,69.00
2023-04-08T09:44:32.360Z,69.00
2023-04-08T09:47:09.338Z,66.30
2023-04-08T09:49:43.279Z,67.60
2023-04-08T09:52:16.081Z,67.90
2023-04-08T09:54:53.556Z,68.80
2023-04-08T09:57:29.808Z,67.20
2023-04-08T10:00:05.687Z,67.20
2023-04-08T10:02:40.543Z,67.60
2023-04-08T10:05:09.424Z,69.40
2023-04-08T10:07:38.983Z,69.40
2023-04-08T10:10:09.269Z,67.80
2023-04-08T10:12:37.745Z,70.00
2023-04-08T10:15:25.345Z,68.90
2023-04-08T10:17:53.422Z,69.60
2023-04-08T10:20:43.708Z,67.40
2023-04-08T10:23:14.165Z,70.30
2023-04-08T10:25:42.613Z,69.80
2023-04-08T10:28:26.435Z,70.90
2023-04-08T10:30:55.540Z,66.60
2023-04-08T10:33:25.848Z,66.40
2023-04-08T10:36:02.851Z,67.10
2023-04-08T10:38:32.762Z,67.20
2023-04-08T10:41:00.609Z,67.30
2023-04-08T10:43:34.066Z,67.30
2023-04-08T10:46:02.197Z,69.00
2023-04-08T10:48:30.269Z,68.70
2023-04-08T10:50:59.989Z,67.20
2023-04-08T10:53:29.393Z,66.90
2023-04-08T10:56:07.477Z,68.20
2023-04-08T10:58:36.295Z,66.20
2023-04-08T11:01:06.772Z,66.40
2023-04-08T11:03:35.693Z,67.20
2023-04-08T11:06:04.343Z,68.40
2023-04-08T11:08:33.277Z,68.20
2023-04-08T11:11:02.322Z,67.90
2023-04-08T11:13:32.266Z,68.00
2023-04-08T11:16:02.498Z,68.80
2023-04-08T11:18:31.330Z,66.80
2023-04-08T11:21:00.311Z,67.10
2023-04-08T11:23:28.784Z,66.60
2023-04-08T11:25:57.100Z,65.10
2023-04-08T11:28:25.903Z,63.50
2023-04-08T11:30:55.976Z,62.70
2023-04-08T11:33:27.010Z,62.50
2023-04-08T11:35:55.524Z,64.50
2023-04-08T11:38:24.441Z,65.40
2023-04-08T11:40:56.061Z,66.10
2023-04-08T11:43:24.295Z,67.90
2023-04-08T11:45:52.156Z,65.60
2023-04-08T11:48:21.679Z,64.40
2023-04-08T11:50:51.610Z,65.20
2023-04-08T11:53:20.568Z,65.90
2023-04-08T11:55:49.412Z,65.00
2023-04-08T11:58:17.556Z,66.10
2023-04-08T12:00:45.798Z,67.40
2023-04-08T12:03:14.171Z,66.50
2023-04-08T12:05:43.565Z,68.50
2023-04-08T12:08:11.467Z,67.30
2023-04-08T12:10:39.367Z,68.00
2023-04-08T12:13:07.224Z,68.00
2023-04-08T12:15:35.149Z,66.70
2023-04-08T12:18:03.162Z,68.80
2023-04-08T12:20:31.101Z,66.80
2023-04-08T12:23:00.301Z,67.50
2023-04-08T12:25:29.078Z,68.20
2023-04-08T12:27:56.952Z,66.80
2023-04-08T12:30:24.784Z,68.60
2023-04-08T12:32:55.117Z,67.70
2023-04-08T12:35:23.206Z,68.70
2023-04-08T12:37:51.058Z,68.80
2023-04-08T12:40:20.455Z,69.20
2023-04-08T12:42:48.404Z,68.30
2023-04-08T12:45:16.502Z,67.60
2023-04-08T12:47:44.462Z,68.50
2023-04-08T12:50:12.389Z,69.80
2023-04-08T12:52:40.579Z,69.90
2023-04-08T12:55:09.118Z,70.30
2023-04-08T12:57:38.348Z,70.40
2023-04-08T13:00:07.269Z,68.10
2023-04-08T13:02:35.277Z,68.70
2023-04-08T13:05:03.345Z,71.90
2023-04-08T13:07:31.215Z,70.30
2023-04-08T13:09:59.242Z,70.30
2023-04-08T13:12:27.088Z,69.90
2023-04-08T13:14:56.446Z,70.90
2023-04-08T13:17:24.345Z,69.90
2023-04-08T13:19:52.420Z,69.00
2023-04-08T13:22:20.274Z,68.50
2023-04-08T13:24:48.177Z,69.80
2023-04-08T13:27:16.085Z,70.10
2023-04-08T13:29:44.014Z,69.70
2023-04-08T13:32:13.500Z,69.90
2023-04-08T13:34:42.372Z,68.80
2023-04-08T13:37:10.629Z,67.80
2023-04-08T13:39:38.555Z,67.60
2023-04-08T13:42:06.511Z,68.00
2023-04-08T13:44:34.537Z,68.00
2023-04-08T13:47:02.589Z,68.00
2023-04-08T13:49:31.914Z,68.30
2023-04-08T13:51:59.873Z,67.00
2023-04-08T13:54:27.731Z,67.90
2023-04-08T13:56:55.782Z,68.70
2023-04-08T13:59:23.704Z,68.30
2023-04-08T14:01:54.251Z,69.90
2023-04-08T14:04:22.881Z,68.90
2023-04-08T14:06:53.176Z,68.00
2023-04-08T14:09:21.580Z,68.20
2023-04-08T14:11:49.597Z,67.50
2023-04-08T14:14:17.571Z,67.20
2023-04-08T14:16:45.522Z,69.20
2023-04-08T14:19:13.648Z,69.30
2023-04-08T14:21:41.586Z,68.10
2023-04-08T14:24:10.975Z,68.30
2023-04-08T14:26:38.857Z,68.10
2023-04-08T14:29:07.638Z,68.70
2023-04-08T14:31:36.330Z,68.90
2023-04-08T14:34:05.035Z,67.70
2023-04-08T14:36:33.046Z,69.20
2023-04-08T14:39:01.156Z,67.70
2023-04-08T14:41:30.655Z,69.90
2023-04-08T14:43:58.576Z,69.00
2023-04-08T14:46:29.047Z,69.10
2023-04-08T14:48:57.240Z,68.50
2023-04-08T14:51:25.233Z,68.40
2023-04-08T14:53:53.118Z,69.00
2023-04-08T14:56:21.168Z,67.70
2023-04-08T14:58:50.716Z,68.90
2023-04-08T15:01:18.892Z,69.60
2023-04-08T15:03:47.363Z,69.30
2023-04-08T15:06:17.672Z,70.50
2023-04-08T15:08:45.702Z,70.30
2023-04-08T15:11:13.756Z,70.50
2023-04-08T15:13:41.748Z,70.60
2023-04-08T15:16:11.182Z,69.90
2023-04-08T15:18:39.238Z,69.20
2023-04-08T15:21:07.190Z,69.10
2023-04-08T15:23:35.538Z,70.00
2023-04-08T15:26:03.487Z,71.30
2023-04-08T15:28:31.412Z,71.70
2023-04-08T15:30:59.400Z,70.40
2023-04-08T15:33:28.747Z,71.10
2023-04-08T15:35:57.450Z,69.70
2023-04-08T15:38:25.502Z,70.90
2023-04-08T15:40:53.609Z,70.80
2023-04-08T15:43:21.480Z,72.70
2023-04-08T15:45:49.429Z,72.20
2023-04-08T15:48:17.557Z,72.30
2023-04-08T15:50:47.171Z,71.80
2023-04-08T15:53:15.110Z,72.30
2023-04-08T15:55:43.107Z,72.60
2023-04-08T15:58:11.036Z,72.00
2023-04-08T16:00:39.004Z,72.20
2023-04-08T16:03:08.921Z,73.50
2023-04-08T16:05:39.247Z,73.00
2023-04-08T16:08:08.754Z,72.90
2023-04-08T16:10:36.744Z,73.10
2023-04-08T16:13:04.704Z,73.60
2023-04-08T16:15:34.006Z,73.60
2023-04-08T16:18:03.077Z,73.90
2023-04-08T16:20:31.073Z,73.50
2023-04-08T16:22:59.033Z,74.40
2023-04-08T16:25:28.591Z,74.70
2023-04-08T16:27:56.588Z,73.90
2023-04-08T16:30:24.551Z,72.70
2023-04-08T16:32:52.910Z,72.80
2023-04-08T16:35:22.280Z,73.00
2023-04-08T16:37:50.196Z,74.10
2023-04-08T16:40:18.745Z,74.60
2023-04-08T16:42:50.288Z,73.70
2023-04-08T16:45:18.463Z,74.60
2023-04-08T16:47:46.818Z,74.20
2023-04-08T16:50:14.929Z,74.20
2023-04-08T16:52:49.154Z,74.70
2023-04-08T16:55:17.355Z,74.40
2023-04-08T16:57:45.251Z,74.60
2023-04-08T17:00:16.863Z,75.00
2023-04-08T17:02:46.169Z,75.00
2023-04-08T17:05:14.280Z,75.10
2023-04-08T17:07:42.188Z,75.30
2023-04-08T17:10:11.184Z,75.50
2023-04-08T17:12:39.192Z,75.20
2023-04-08T17:15:08.330Z,75.60
2023-04-08T17:17:37.771Z,76.50
2023-04-08T17:20:07.357Z,76.60
2023-04-08T17:22:35.699Z,76.90
2023-04-08T17:25:03.609Z,76.80
2023-04-08T17:27:31.582Z,76.40
2023-04-08T17:29:59.484Z,77.30
2023-04-08T17:32:27.746Z,76.80
2023-04-08T17:34:57.101Z,76.50
2023-04-08T17:37:25.077Z,76.40
2023-04-08T17:39:53.022Z,77.20
2023-04-08T17:42:22.362Z,77.50
2023-04-08T17:44:50.283Z,77.40
2023-04-08T17:47:18.223Z,77.70
2023-04-08T17:49:46.335Z,77.90
2023-04-08T17:52:15.759Z,77.70
2023-04-08T17:54:43.937Z,78.00
2023-04-08T17:57:13.226Z,77.80
2023-04-08T17:59:41.298Z,78.20
2023-04-08T18:02:09.293Z,77.80
2023-04-08T18:04:38.836Z,78.40
2023-04-08T18:07:06.734Z,78.60
2023-04-08T18:09:36.066Z,78.70
2023-04-08T18:12:04.000Z,78.30
2023-04-08T18:14:31.904Z,79.00
2023-04-08T18:16:59.817Z,79.00
2023-04-08T18:19:27.697Z,79.30
2023-04-08T18:21:55.736Z,79.40
2023-04-08T18:24:23.756Z,79.00
2023-04-08T18:27:04.151Z,78.90
2023-04-08T18:29:32.814Z,78.90
2023-04-08T18:32:00.781Z,78.90
2023-04-08T18:34:28.710Z,78.80
2023-04-08T18:36:56.759Z,78.70
2023-04-08T18:39:24.633Z,78.70
2023-04-08T18:41:53.912Z,79.20
2023-04-08T18:44:21.760Z,79.50
2023-04-08T18:46:49.687Z,79.20
2023-04-08T18:49:17.719Z,79.30
2023-04-08T18:51:58.977Z,79.60
2023-04-08T18:54:30.132Z,79.90
2023-04-08T18:56:59.531Z,79.70
2023-04-08T18:59:28.827Z,79.90
2023-04-08T19:01:57.117Z,79.90
2023-04-08T19:04:25.307Z,79.80
2023-04-08T19:06:53.303Z,80.10
2023-04-08T19:09:21.225Z,79.90
2023-04-08T19:11:49.311Z,80.20
2023-04-08T19:14:18.649Z,80.20
2023-04-08T19:16:46.516Z,80.30
2023-04-08T19:19:14.509Z,80.30
2023-04-08T19:21:42.391Z,80.70
2023-04-08T19:24:10.324Z,80.60
2023-04-08T19:26:38.301Z,80.40
2023-04-08T19:29:06.163Z,80.60
2023-04-08T19:31:35.416Z,80.60
2023-04-08T19:34:03.362Z,80.90
2023-04-08T19:36:31.765Z,80.80
2023-04-08T19:39:01.454Z,80.80
2023-04-08T19:41:29.352Z,80.80
2023-04-08T19:43:57.278Z,80.70
2023-04-08T19:46:25.424Z,80.50
2023-04-08T19:48:56.141Z,80.70
2023-04-08T19:51:24.239Z,80.70
2023-04-08T19:53:54.109Z,80.70
2023-04-08T19:56:22.260Z,80.80
2023-04-08T19:58:50.437Z,81.00
2023-04-08T20:01:18.835Z,80.60
2023-04-08T20:03:49.942Z,80.80
2023-04-08T20:06:19.988Z,80.90
2023-04-08T20:08:50.091Z,81.20
2023-04-08T20:11:18.375Z,81.30
2023-04-08T20:13:46.954Z,81.20
2023-04-08T20:16:15.079Z,80.80
2023-04-08T20:18:43.208Z,81.00
2023-04-08T20:21:13.781Z,81.00
2023-04-08T20:23:44.991Z,80.60
2023-04-08T20:26:13.314Z,80.40
2023-04-08T20:28:41.719Z,80.70
2023-04-08T20:31:10.351Z,80.80
2023-04-08T20:33:43.542Z,81.40
2023-04-08T20:36:12.189Z,81.30
2023-04-08T20:38:40.432Z,81.60
2023-04-08T20:41:09.695Z,81.30
2023-04-08T20:43:39.360Z,81.40
2023-04-08T20:46:07.467Z,81.60
2023-04-08T20:48:35.990Z,81.30
2023-04-08T20:51:03.950Z,81.00
2023-04-08T20:53:32.099Z,80.80
2023-04-08T20:55:59.943Z,80.80
2023-04-08T20:58:29.458Z,80.90
2023-04-08T21:00:59.042Z,81.30
2023-04-08T21:03:27.775Z,81.30
2023-04-08T21:05:56.304Z,81.40
2023-04-08T21:08:24.227Z,81.40
2023-04-08T21:10:52.234Z,81.50
2023-04-08T21:13:20.228Z,81.40
2023-04-08T21:15:49.674Z,81.30
2023-04-08T21:18:17.522Z,81.70
2023-04-08T21:20:45.492Z,81.70
2023-04-08T21:23:13.423Z,81.90
2023-04-08T21:25:41.381Z,81.80
2023-04-08T21:28:09.245Z,81.90
2023-04-08T21:30:37.172Z,81.80
2023-04-08T21:33:06.696Z,82.10
2023-04-08T21:35:34.700Z,82.20
2023-04-08T21:38:02.710Z,82.20
2023-04-08T21:40:30.713Z,82.30
2023-04-08T21:42:58.606Z,82.30
2023-04-08T21:45:26.519Z,82.10
2023-04-08T21:47:55.161Z,82.40
2023-04-08T21:50:24.579Z,82.50
2023-04-08T21:52:52.463Z,82.30
2023-04-08T21:55:20.512Z,82.30
2023-04-08T21:57:48.987Z,82.20
2023-04-08T22:00:17.077Z,82.30
2023-04-08T22:02:45.165Z,82.40
2023-04-08T22:05:13.391Z,82.60
2023-04-08T22:07:42.773Z,82.60
2023-04-08T22:10:11.611Z,82.30
2023-04-08T22:12:39.571Z,82.10
2023-04-08T22:15:08.596Z,82.30
2023-04-08T22:17:37.135Z,82.30
2023-04-08T22:20:05.911Z,82.30
2023-04-08T22:22:33.998Z,82.00
2023-04-08T22:25:03.392Z,82.20
2023-04-08T22:27:31.334Z,82.30
2023-04-08T22:29:59.269Z,82.20
2023-04-08T22:32:27.153Z,82.30
2023-04-08T22:34:55.480Z,82.40
2023-04-08T22:37:23.385Z,82.40
2023-04-08T22:39:51.294Z,82.20
2023-04-08T22:42:20.679Z,82.40
2023-04-08T22:44:48.537Z,82.30
2023-04-08T22:47:16.618Z,82.20
2023-04-08T22:49:44.571Z,82.30
2023-04-08T22:52:12.544Z,82.10
2023-04-08T22:54:40.392Z,82.10
2023-04-08T22:57:08.237Z,82.40
2023-04-08T22:59:37.561Z,82.30
2023-04-08T23:02:05.571Z,82.40
2023-04-08T23:04:33.540Z,82.20
2023-04-08T23:07:01.501Z,82.20
2023-04-08T23:09:29.534Z,82.10
2023-04-08T23:11:57.958Z,82.20
2023-04-08T23:14:26.160Z,82.00
2023-04-08T23:16:55.565Z,81.90
2023-04-08T23:19:23.379Z,81.70
2023-04-08T23:21:51.212Z,82.00
2023-04-08T23:24:19.167Z,81.80
2023-04-08T23:26:48.654Z,81.70
2023-04-08T23:29:16.804Z,81.70
2023-04-08T23:31:44.734Z,81.30
2023-04-08T23:34:14.100Z,81.30
2023-04-08T23:36:42.093Z,81.40
2023-04-08T23:39:10.146Z,81.40
2023-04-08T23:41:38.033Z,80.90
2023-04-08T23:44:06.265Z,80.60
2023-04-08T23:46:34.532Z,80.30
2023-04-08T23:49:02.458Z,80.10
2023-04-08T23:51:31.965Z,80.40
2023-04-08T23:53:59.826Z,80.40
2023-04-08T23:56:27.803Z,80.30
2023-04-08T23:58:55.718Z,80.30
